Time;durP1;ratioP1;P1;durP2;ratioP2;P2;SDS_P1;SDS_P2;PMS_P1;PMS_P2;Temp;Humidity;BMP_temperature;BMP_pressure;BME280_temperature;BME280_humidity;BME280_pressure;Samples;Min_cycle;Max_cycle;Signal;HPM_P1;HPM_P2
2021/06/13 00:05:32;;;;;;;8.67;4.13;;;16.30;99.90;;;;;;20950372;28;20037;-77
2021/06/13 00:15:33;;;;;;;8.10;3.83;;;16.10;99.90;;;;;;20909147;28;20048;-76
2021/06/13 00:25:34;;;;;;;5.00;3.33;;;15.90;99.90;;;;;;20909180;28;20041;-77
2021/06/13 00:35:35;;;;;;;4.73;3.40;;;16.00;99.90;;;;;;20939824;28;20407;-77
2021/06/13 00:45:36;;;;;;;8.10;4.00;;;15.80;99.90;;;;;;20967662;28;20049;-76
2021/06/13 00:55:38;;;;;;;8.37;3.87;;;15.50;99.90;;;;;;20945643;28;20090;-77
2021/06/13 01:05:39;;;;;;;6.18;4.30;;;15.50;99.90;;;;;;20929094;28;20047;-77
2021/06/13 01:15:52;;;;;;;5.07;4.30;;;15.40;99.90;;;;;;20976923;28;20040;-77
2021/06/13 01:26:11;;;;;;;5.03;4.13;;;15.30;99.90;;;;;;20997355;28;20722;-77
2021/06/13 01:36:13;;;;;;;10.07;4.18;;;15.20;99.90;;;;;;20986189;28;20044;-77
2021/06/13 01:46:18;;;;;;;8.43;4.07;;;15.20;99.90;;;;;;20985233;28;20040;-77
2021/06/13 01:56:20;;;;;;;6.30;4.15;;;15.40;99.90;;;;;;20984529;28;20085;-77
2021/06/13 02:06:38;;;;;;;5.82;4.05;;;15.50;99.90;;;;;;20952800;28;20082;-77
2021/06/13 02:16:43;;;;;;;7.38;4.38;;;15.60;99.90;;;;;;20900280;28;20508;-77
2021/06/13 02:26:46;;;;;;;9.88;4.88;;;15.40;99.90;;;;;;20916699;28;20039;-77
2021/06/13 02:36:50;;;;;;;14.93;5.00;;;15.20;99.90;;;;;;20898931;28;20124;-77
2021/06/13 02:46:51;;;;;;;6.88;4.38;;;15.30;99.90;;;;;;20901163;28;20055;-77
2021/06/13 02:56:58;;;;;;;8.07;4.57;;;15.40;99.90;;;;;;20915403;28;20793;-77
2021/06/13 03:07:01;;;;;;;7.20;4.57;;;15.40;99.90;;;;;;20951572;28;20033;-78
2021/06/13 03:17:03;;;;;;;4.67;4.07;;;15.40;99.90;;;;;;21002874;28;20047;-78
2021/06/13 03:27:06;;;;;;;5.47;4.63;;;15.60;99.90;;;;;;20995546;28;20052;-79
2021/06/13 03:37:10;;;;;;;6.75;5.00;;;15.60;99.90;;;;;;20994894;28;20111;-78
2021/06/13 03:47:13;;;;;;;8.02;5.22;;;15.40;99.90;;;;;;20976102;28;20037;-79
2021/06/13 03:57:16;;;;;;;8.93;4.38;;;15.60;99.90;;;;;;20975241;28;20040;-78
2021/06/13 04:07:18;;;;;;;7.50;4.35;;;15.70;99.90;;;;;;20974941;28;20511;-78
2021/06/13 04:17:23;;;;;;;9.80;4.63;;;15.90;99.90;;;;;;20992092;28;20028;-78
2021/06/13 04:27:25;;;;;;;7.28;4.30;;;15.90;99.90;;;;;;20991272;28;20036;-78
2021/06/13 04:37:27;;;;;;;7.97;4.47;;;16.00;99.90;;;;;;20973452;28;20120;-78
2021/06/13 04:47:27;;;;;;;7.97;3.77;;;15.80;99.90;;;;;;20994260;28;20487;-79
2021/06/13 04:58:06;;;;;;;8.47;4.10;;;16.20;99.90;;;;;;21017778;28;20047;-78
2021/06/13 05:08:07;;;;;;;5.28;4.32;;;16.50;99.90;;;;;;20992196;28;20514;-78
2021/06/13 05:18:08;;;;;;;5.27;4.40;;;16.80;99.90;;;;;;20999358;28;20048;-76
2021/06/13 05:28:09;;;;;;;6.13;4.37;;;17.00;99.90;;;;;;21001426;28;20056;-80
2021/06/13 05:38:10;;;;;;;5.90;4.27;;;17.30;99.90;;;;;;21025189;28;20032;-80
2021/06/13 05:48:11;;;;;;;7.17;4.73;;;17.40;99.90;;;;;;21045342;28;20044;-79
2021/06/13 05:58:13;;;;;;;9.87;5.10;;;17.80;99.90;;;;;;21001725;28;20079;-80
2021/06/13 06:08:14;;;;;;;9.40;5.00;;;18.30;99.90;;;;;;21001819;28;20063;-77
2021/06/13 06:18:15;;;;;;;9.13;6.20;;;18.40;99.90;;;;;;21015159;28;20041;-78
2021/06/13 06:28:15;;;;;;;8.10;5.37;;;18.60;99.90;;;;;;21020872;28;20579;-78
2021/06/13 06:38:16;;;;;;;9.30;5.03;;;18.80;99.90;;;;;;21064174;28;20130;-78
2021/06/13 06:48:18;;;;;;;8.03;5.60;;;20.10;99.90;;;;;;21040948;28;20503;-78
2021/06/13 06:58:19;;;;;;;;;;;20.70;99.90;;;;;;21063365;28;20499;-78
2021/06/13 07:08:19;;;;;;;10.97;5.20;;;21.00;99.90;;;;;;21058322;28;19912;-78
2021/06/13 07:18:21;;;;;;;7.67;5.40;;;21.50;99.90;;;;;;21037684;28;20044;-78
2021/06/13 07:28:22;;;;;;;7.73;5.07;;;21.60;99.90;;;;;;21051441;28;20033;-78
2021/06/13 07:38:23;;;;;;;6.03;4.73;;;21.90;99.90;;;;;;21035921;28;20126;-78
2021/06/13 07:48:24;;;;;;;6.53;4.87;;;22.50;99.90;;;;;;21054929;28;20041;-78
2021/06/13 07:58:25;;;;;;;7.00;4.23;;;22.70;99.90;;;;;;21050743;28;20498;-79
2021/06/13 08:08:25;;;;;;;8.37;4.13;;;23.20;99.90;;;;;;21056181;28;20051;-79
2021/06/13 08:18:26;;;;;;;6.03;3.73;;;23.30;99.90;;;;;;21060937;28;20064;-77
2021/06/13 08:28:28;;;;;;;6.27;4.00;;;24.10;99.90;;;;;;21042137;28;20037;-77
2021/06/13 08:38:29;;;;;;;4.53;3.10;;;24.50;99.90;;;;;;21062694;28;20357;-79
2021/06/13 08:48:31;;;;;;;4.90;3.17;;;24.70;99.90;;;;;;21062939;28;20103;-78
2021/06/13 08:58:32;;;;;;;7.22;3.63;;;24.50;99.90;;;;;;21042192;28;20045;-78
2021/06/13 09:08:38;;;;;;;6.57;3.87;;;24.90;99.90;;;;;;21059535;22;20052;-80
2021/06/13 09:18:45;;;;;;;5.18;3.40;;;25.70;99.90;;;;;;21079433;28;20651;-80
2021/06/13 09:28:51;;;;;;;4.15;3.05;;;26.50;99.90;;;;;;20989539;28;20082;-78
2021/06/13 09:38:54;;;;;;;3.45;3.15;;;26.80;99.90;;;;;;20988409;28;20463;-79
2021/06/13 09:49:16;;;;;;;5.28;3.15;;;26.80;99.90;;;;;;21023291;28;20070;-79
2021/06/13 09:59:29;;;;;;;3.92;3.10;;;26.50;99.90;;;;;;20973553;28;20415;-79
2021/06/13 10:09:38;;;;;;;4.55;3.05;;;26.80;99.90;;;;;;21003203;28;20048;-79
2021/06/13 10:19:47;;;;;;;4.28;3.20;;;27.80;99.90;;;;;;20984130;28;20134;-79
2021/06/13 10:29:51;;;;;;;6.00;2.90;;;27.40;99.90;;;;;;21002930;28;20082;-80
2021/06/13 10:39:52;;;;;;;4.05;2.60;;;28.30;99.90;;;;;;21002832;28;20534;-79
2021/06/13 10:49:56;;;;;;;4.00;2.40;;;28.50;99.90;;;;;;20983779;28;20044;-80
2021/06/13 10:59:57;;;;;;;3.95;2.97;;;28.10;99.90;;;;;;20982512;28;20041;-79
2021/06/13 11:10:14;;;;;;;5.57;3.30;;;28.10;99.90;;;;;;20997135;28;20040;-79
2021/06/13 11:20:44;;;;;;;5.05;2.83;;;28.10;99.90;;;;;;20960093;28;20094;-79
2021/06/13 11:30:49;;;;;;;7.68;2.95;;;27.80;99.90;;;;;;20982287;28;20131;-79
2021/06/13 11:40:59;;;;;;;6.53;2.95;;;27.90;99.90;;;;;;20949318;28;20044;-80
2021/06/13 11:51:06;;;;;;;3.30;2.67;;;28.00;99.90;;;;;;21030243;28;20474;-80
2021/06/13 12:01:07;;;;;;;2.45;2.17;;;29.90;99.90;;;;;;20977387;28;20491;-80
2021/06/13 12:11:08;;;;;;;5.35;2.80;;;29.90;99.90;;;;;;20967957;28;20040;-79
2021/06/13 12:21:09;;;;;;;5.20;2.83;;;29.50;99.90;;;;;;20990156;28;20048;-80
2021/06/13 12:31:10;;;;;;;5.75;2.85;;;29.50;99.90;;;;;;20990119;28;20071;-80
2021/06/13 12:41:12;;;;;;;3.65;2.72;;;28.90;99.90;;;;;;20988719;28;20068;-80
2021/06/13 12:51:24;;;;;;;6.30;2.92;;;28.80;99.90;;;;;;20973467;28;20040;-80
2021/06/13 13:01:25;;;;;;;4.38;2.70;;;29.50;99.90;;;;;;20971097;28;20056;-80
2021/06/13 13:11:33;;;;;;;4.18;2.40;;;29.50;99.90;;;;;;20978306;28;20075;-80
2021/06/13 13:21:35;;;;;;;5.07;2.92;;;29.20;99.90;;;;;;20994399;28;20037;-80
2021/06/13 13:31:36;;;;;;;4.00;2.28;;;29.10;99.90;;;;;;21030986;28;20040;-81
2021/06/13 13:41:48;;;;;;;4.00;2.53;;;29.70;99.90;;;;;;21042568;28;20076;-81
2021/06/13 13:51:52;;;;;;;3.50;2.70;;;29.40;99.90;;;;;;21000012;28;20040;-80
2021/06/13 14:01:53;;;;;;;3.35;2.08;;;29.30;99.90;;;;;;20964962;28;20072;-80
2021/06/13 14:11:54;;;;;;;5.70;2.25;;;28.90;99.90;;;;;;20997640;28;20040;-80
2021/06/13 14:21:56;;;;;;;3.20;1.85;;;29.10;99.90;;;;;;20982912;28;20097;-80
2021/06/13 14:31:57;;;;;;;3.40;2.10;;;29.60;99.10;;;;;;20982675;28;20079;-81
2021/06/13 14:41:58;;;;;;;6.55;2.00;;;29.20;97.30;;;;;;20998955;28;20372;-80
2021/06/13 14:51:58;;;;;;;4.03;2.15;;;29.60;98.70;;;;;;20996064;28;20113;-80
2021/06/13 15:01:59;;;;;;;4.47;1.77;;;29.80;97.20;;;;;;21057894;28;20310;-81
2021/06/13 15:12:00;;;;;;;2.97;1.83;;;29.00;97.30;;;;;;21034297;22;20109;-76
2021/06/13 15:22:02;;;;;;;2.92;1.63;;;30.10;93.40;;;;;;20898911;28;20045;-76
2021/06/13 15:32:07;;;;;;;4.50;1.80;;;29.80;94.30;;;;;;20905456;28;20033;-75
2021/06/13 15:42:16;;;;;;;4.05;1.33;;;29.50;92.90;;;;;;20954512;28;20040;-75
2021/06/13 15:52:17;;;;;;;3.80;1.60;;;29.40;90.70;;;;;;20970681;28;20164;-76
2021/06/13 16:02:24;;;;;;;3.33;1.77;;;29.30;91.00;;;;;;20908636;28;20051;-75
2021/06/13 16:12:25;;;;;;;2.88;1.80;;;29.00;90.60;;;;;;20868285;28;20395;-74
2021/06/13 16:22:26;;;;;;;5.93;2.15;;;28.30;91.50;;;;;;20885306;28;20098;-76
2021/06/13 16:32:27;;;;;;;3.38;2.30;;;28.40;92.90;;;;;;20887689;28;20041;-74
2021/06/13 16:42:28;;;;;;;3.97;2.08;;;27.70;93.50;;;;;;20886167;28;20048;-75
2021/06/13 16:52:29;;;;;;;4.22;2.40;;;27.40;94.50;;;;;;20885645;28;20041;-75
2021/06/13 17:02:30;;;;;;;9.40;2.15;;;27.60;94.00;;;;;;20886743;28;20561;-76
2021/06/13 17:12:31;;;;;;;3.88;2.10;;;27.20;95.30;;;;;;20867140;28;20052;-74
2021/06/13 17:22:33;;;;;;;4.57;2.13;;;27.30;96.00;;;;;;20883869;28;20061;-74
2021/06/13 17:32:34;;;;;;;5.47;2.40;;;27.00;97.20;;;;;;20884844;28;20041;-74
2021/06/13 17:42:36;;;;;;;5.68;2.55;;;27.00;96.90;;;;;;20967302;28;20045;-75
2021/06/13 17:52:38;;;;;;;3.20;2.35;;;27.00;96.80;;;;;;20932714;28;20052;-74
2021/06/13 18:02:39;;;;;;;5.75;2.30;;;27.30;96.50;;;;;;20896399;28;20515;-75
2021/06/13 18:12:40;;;;;;;3.33;2.42;;;28.50;96.20;;;;;;20896551;28;20047;-74
2021/06/13 18:22:41;;;;;;;6.90;2.30;;;29.90;95.50;;;;;;20894620;28;20147;-75
2021/06/13 18:32:42;;;;;;;3.17;2.30;;;30.40;94.20;;;;;;20894130;28;20056;-74
2021/06/13 18:42:43;;;;;;;6.38;2.72;;;29.80;95.70;;;;;;20893543;28;20695;-74
2021/06/13 18:52:44;;;;;;;;;;;25.90;99.90;;;;;;20883334;28;20040;-74
2021/06/13 19:02:45;;;;;;;5.27;3.07;;;23.80;99.90;;;;;;20922502;28;19916;-73
2021/06/13 19:12:46;;;;;;;5.43;3.17;;;22.90;99.90;;;;;;20912713;28;20049;-73
2021/06/13 19:22:47;;;;;;;7.07;3.20;;;22.40;99.90;;;;;;20942586;28;20685;-75
2021/06/13 19:32:49;;;;;;;;;;;22.10;99.90;;;;;;20936301;28;20129;-74
2021/06/13 19:42:51;;;;;;;6.57;2.35;;;21.40;99.90;;;;;;20954482;28;19984;-75
2021/06/13 19:52:54;;;;;;;4.07;2.05;;;21.00;99.90;;;;;;20889820;28;20049;-74
2021/06/13 20:02:55;;;;;;;4.45;2.05;;;20.50;99.90;;;;;;20889301;28;20407;-75
2021/06/13 20:12:55;;;;;;;2.77;1.93;;;20.10;99.90;;;;;;20926927;28;20114;-74
2021/06/13 20:22:56;;;;;;;5.20;1.80;;;20.00;99.90;;;;;;20970431;28;20090;-75
2021/06/13 20:32:57;;;;;;;2.30;1.30;;;19.80;99.90;;;;;;20970359;28;20036;-75
2021/06/13 20:42:59;;;;;;;6.57;1.93;;;19.50;99.90;;;;;;20969948;28;20119;-75
2021/06/13 20:53:00;;;;;;;7.20;1.57;;;19.30;99.90;;;;;;20951092;28;20140;-76
2021/06/13 21:03:01;;;;;;;2.93;1.40;;;19.40;99.90;;;;;;20969391;28;20559;-75
2021/06/13 21:13:02;;;;;;;1.87;1.50;;;19.20;99.90;;;;;;20931623;28;20132;-75
2021/06/13 21:23:03;;;;;;;1.97;1.33;;;18.40;99.90;;;;;;20885487;28;20119;-76
2021/06/13 21:33:05;;;;;;;5.23;1.60;;;18.30;99.90;;;;;;20896879;28;20047;-74
2021/06/13 21:43:05;;;;;;;6.07;1.42;;;18.00;99.90;;;;;;20910694;28;20495;-74
2021/06/13 21:53:06;;;;;;;3.43;1.87;;;17.90;99.90;;;;;;20983328;28;20052;-74
2021/06/13 22:03:07;;;;;;;7.10;1.52;;;17.80;99.90;;;;;;20977992;28;20050;-74
2021/06/13 22:13:08;;;;;;;3.13;1.63;;;17.50;99.90;;;;;;20976836;28;20040;-75
2021/06/13 22:23:09;;;;;;;7.77;1.60;;;17.50;99.90;;;;;;20946310;28;20064;-76
2021/06/13 22:33:10;;;;;;;4.38;1.60;;;17.40;99.90;;;;;;20987493;28;20066;-75
2021/06/13 22:43:11;;;;;;;2.95;1.63;;;17.10;99.90;;;;;;20937617;28;20112;-75
2021/06/13 22:53:12;;;;;;;2.10;1.53;;;16.90;99.90;;;;;;20916221;28;20495;-75
2021/06/13 23:03:17;;;;;;;2.33;1.90;;;16.70;99.90;;;;;;20914925;28;20055;-76
2021/06/13 23:13:20;;;;;;;2.22;1.70;;;16.60;99.90;;;;;;20914006;28;20099;-76
2021/06/13 23:23:21;;;;;;;2.42;1.70;;;16.60;99.90;;;;;;20913314;28;20450;-76
2021/06/13 23:33:22;;;;;;;2.67;1.60;;;16.80;99.90;;;;;;20894860;28;20072;-75
2021/06/13 23:43:23;;;;;;;4.43;2.10;;;16.30;99.90;;;;;;20911861;28;20037;-76
2021/06/13 23:53:24;;;;;;;3.40;1.83;;;16.40;99.90;;;;;;20910797;28;20040;-75
